createdAt,value
2022-08-04T00:02:24.896Z,24.10
2022-08-04T00:05:00.565Z,23.70
2022-08-04T00:07:45.408Z,23.90
2022-08-04T00:10:16.979Z,24.70
2022-08-04T00:12:47.728Z,24.80
2022-08-04T00:15:16.931Z,24.50
2022-08-04T00:17:57.887Z,24.90
2022-08-04T00:20:29.260Z,25.40
2022-08-04T00:22:57.372Z,25.40
2022-08-04T00:25:25.159Z,25.20
2022-08-04T00:27:52.281Z,26.10
2022-08-04T00:30:19.231Z,26.00
2022-08-04T00:32:46.862Z,26.60
2022-08-04T00:35:15.289Z,26.00
2022-08-04T00:37:47.412Z,26.20
2022-08-04T00:40:24.212Z,26.50
2022-08-04T00:43:28.117Z,26.90
2022-08-04T00:46:18.078Z,26.70
2022-08-04T00:49:06.684Z,26.30
2022-08-04T00:52:32.054Z,27.20
2022-08-04T00:54:53.902Z,27.10
2022-08-04T00:57:50.810Z,26.90
2022-08-04T01:00:17.767Z,26.80
2022-08-04T01:02:50.727Z,27.10
2022-08-04T01:05:48.870Z,26.50
2022-08-04T01:08:38.714Z,27.10
2022-08-04T01:11:57.093Z,26.80
2022-08-04T01:14:52.092Z,27.80
2022-08-04T01:17:37.562Z,27.10
2022-08-04T01:20:13.288Z,27.50
2022-08-04T01:23:20.719Z,27.70
2022-08-04T01:25:53.242Z,27.60
2022-08-04T01:28:23.073Z,27.90
2022-08-04T01:30:57.788Z,28.40
2022-08-04T01:33:29.423Z,28.10
2022-08-04T01:35:59.943Z,28.50
2022-08-04T01:38:39.563Z,28.60
2022-08-04T01:41:13.055Z,29.00
2022-08-04T01:43:45.574Z,29.10
2022-08-04T01:46:15.917Z,29.40
2022-08-04T01:48:45.706Z,29.80
2022-08-04T01:51:13.308Z,29.30
2022-08-04T01:53:43.961Z,29.80
2022-08-04T01:56:12.510Z,30.30
2022-08-04T01:58:40.797Z,30.20
2022-08-04T02:01:13.535Z,30.40
2022-08-04T02:04:20.460Z,31.40
2022-08-04T02:06:46.080Z,32.20
2022-08-04T02:09:23.476Z,32.10
2022-08-04T02:12:05.352Z,32.30
2022-08-04T02:15:00.955Z,32.50
2022-08-04T02:17:38.029Z,32.80
2022-08-04T02:20:09.437Z,32.60
2022-08-04T02:23:01.262Z,32.70
2022-08-04T02:25:29.845Z,32.10
2022-08-04T02:28:18.203Z,32.90
2022-08-04T02:31:08.699Z,32.80
2022-08-04T02:33:45.241Z,33.10
2022-08-04T02:36:23.846Z,33.10
2022-08-04T02:39:00.366Z,33.20
2022-08-04T02:41:28.534Z,33.80
2022-08-04T02:43:58.516Z,33.20
2022-08-04T02:46:25.824Z,33.70
2022-08-04T02:48:54.561Z,34.20
2022-08-04T02:51:28.793Z,34.40
2022-08-04T02:53:58.998Z,34.60
2022-08-04T02:56:30.064Z,33.70
2022-08-04T02:59:00.958Z,34.80
2022-08-04T03:01:27.988Z,34.40
2022-08-04T03:04:24.976Z,33.90
2022-08-04T03:07:16.793Z,33.70
2022-08-04T03:10:02.529Z,34.80
2022-08-04T03:12:50.949Z,34.20
2022-08-04T03:15:24.018Z,34.20
2022-08-04T03:18:05.666Z,34.50
2022-08-04T03:21:13.486Z,34.70
2022-08-04T03:23:46.470Z,34.30
2022-08-04T03:26:31.964Z,34.40
2022-08-04T03:29:35.179Z,34.00
2022-08-04T03:32:38.099Z,35.30
2022-08-04T03:35:29.197Z,34.20
2022-08-04T03:38:07.965Z,35.30
2022-08-04T03:40:54.115Z,35.10
2022-08-04T03:43:57.516Z,35.20
2022-08-04T03:46:45.279Z,34.70
2022-08-04T03:49:53.429Z,35.40
2022-08-04T03:52:57.491Z,35.90
2022-08-04T03:55:27.098Z,36.00
2022-08-04T03:58:20.555Z,36.20
2022-08-04T04:00:54.840Z,36.70
2022-08-04T04:03:29.577Z,35.70
2022-08-04T04:06:18.829Z,35.80
2022-08-04T04:09:20.692Z,37.10
2022-08-04T04:12:09.518Z,37.80
2022-08-04T04:14:59.099Z,37.50
2022-08-04T04:17:50.139Z,37.90
2022-08-04T04:20:38.352Z,38.00
2022-08-04T04:23:22.945Z,37.70
2022-08-04T04:26:26.303Z,37.90
2022-08-04T04:29:27.349Z,38.00
2022-08-04T04:32:10.444Z,37.80
2022-08-04T04:34:46.414Z,38.50
2022-08-04T04:37:25.660Z,38.40
2022-08-04T04:39:57.195Z,37.90
2022-08-04T04:42:23.956Z,38.00
2022-08-04T04:45:02.660Z,38.10
2022-08-04T04:48:07.989Z,38.20
2022-08-04T04:50:53.670Z,38.40
2022-08-04T04:53:44.614Z,38.50
2022-08-04T04:56:52.832Z,38.40
2022-08-04T04:59:25.025Z,38.70
2022-08-04T05:01:54.900Z,38.80
2022-08-04T05:04:40.021Z,38.30
2022-08-04T05:07:22.039Z,38.50
2022-08-04T05:10:21.805Z,38.60
2022-08-04T05:14:38.770Z,38.30
2022-08-04T05:16:00.157Z,37.80
2022-08-04T05:18:31.017Z,38.00
2022-08-04T05:21:30.458Z,37.80
2022-08-04T05:24:04.014Z,36.70
2022-08-04T05:26:35.453Z,36.90
2022-08-04T05:29:09.457Z,36.00
2022-08-04T05:31:51.092Z,36.00
2022-08-04T05:34:24.140Z,35.80
2022-08-04T05:36:57.270Z,35.50
2022-08-04T05:39:36.202Z,34.60
2022-08-04T05:42:07.407Z,34.30
2022-08-04T05:44:42.813Z,34.20
2022-08-04T05:47:12.966Z,33.70
2022-08-04T05:49:44.611Z,32.90
2022-08-04T05:52:15.391Z,31.70
2022-08-04T05:54:43.044Z,32.00
2022-08-04T05:57:18.434Z,30.20
2022-08-04T05:59:51.527Z,30.30
2022-08-04T06:02:20.432Z,29.70
2022-08-04T06:04:51.338Z,28.50
2022-08-04T06:07:21.688Z,28.20
2022-08-04T06:09:48.839Z,28.10
2022-08-04T06:12:40.916Z,26.80
2022-08-04T06:15:14.510Z,27.40
2022-08-04T06:19:56.853Z,24.80
2022-08-04T06:20:50.032Z,24.80
2022-08-04T06:23:25.522Z,23.60
2022-08-04T06:25:57.350Z,22.50
2022-08-04T06:28:28.102Z,22.30
2022-08-04T06:30:55.914Z,20.80
2022-08-04T06:33:54.340Z,20.90
2022-08-04T06:36:28.086Z,21.10
2022-08-04T06:38:58.771Z,20.70
2022-08-04T06:41:31.963Z,20.00
2022-08-04T06:44:02.354Z,19.60
2022-08-04T06:46:30.467Z,19.80
2022-08-04T06:48:58.224Z,19.20
2022-08-04T06:51:37.030Z,19.20
2022-08-04T06:54:08.271Z,18.80
2022-08-04T06:56:38.990Z,18.50
2022-08-04T06:59:06.361Z,17.10
2022-08-04T07:01:36.528Z,15.50
2022-08-04T07:04:06.734Z,17.40
2022-08-04T07:06:35.562Z,18.00
2022-08-04T07:09:03.754Z,17.40
2022-08-04T07:11:44.168Z,14.50
2022-08-04T07:14:20.295Z,13.40
2022-08-04T07:16:49.157Z,14.30
2022-08-04T07:19:19.054Z,13.10
2022-08-04T07:22:17.743Z,13.90
2022-08-04T07:24:41.769Z,14.30
2022-08-04T07:27:12.573Z,11.60
2022-08-04T07:29:40.855Z,10.50
2022-08-04T07:32:08.161Z,11.90
2022-08-04T07:34:37.954Z,12.10
2022-08-04T07:37:05.718Z,12.30
2022-08-04T07:39:47.957Z,12.30
2022-08-04T07:42:19.742Z,11.90
2022-08-04T07:44:47.011Z,11.00
2022-08-04T07:47:14.609Z,11.50
2022-08-04T07:49:57.363Z,10.60
2022-08-04T07:52:26.699Z,10.50
2022-08-04T07:54:54.627Z,10.80
2022-08-04T07:57:40.205Z,9.60
2022-08-04T08:00:10.629Z,9.90
2022-08-04T08:02:39.190Z,9.20
2022-08-04T08:05:07.998Z,8.40
2022-08-04T08:07:34.932Z,8.50
2022-08-04T08:10:01.871Z,7.70
2022-08-04T08:12:37.144Z,7.50
2022-08-04T08:15:16.364Z,7.30
2022-08-04T08:17:59.718Z,5.50
2022-08-04T08:20:29.091Z,5.00
2022-08-04T08:22:57.397Z,5.00
2022-08-04T08:25:24.735Z,5.00
2022-08-04T08:27:56.222Z,5.00
2022-08-04T08:30:24.752Z,5.00
2022-08-04T08:33:06.251Z,5.00
2022-08-04T08:35:47.325Z,5.00
2022-08-04T08:38:33.542Z,5.00
2022-08-04T08:41:32.510Z,5.00
2022-08-04T08:44:19.259Z,5.00
2022-08-04T08:47:19.030Z,5.00
2022-08-04T08:50:10.200Z,5.00
2022-08-04T08:53:10.551Z,5.00
2022-08-04T08:56:13.621Z,5.00
2022-08-04T08:59:16.257Z,5.00
2022-08-04T09:01:56.863Z,5.00
2022-08-04T09:04:51.252Z,5.00
2022-08-04T09:07:53.296Z,5.00
2022-08-04T09:10:34.073Z,5.00
2022-08-04T09:13:08.479Z,5.00
2022-08-04T09:15:35.273Z,5.00
2022-08-04T09:18:21.950Z,5.00
2022-08-04T09:21:03.141Z,5.00
2022-08-04T09:24:00.231Z,5.00
2022-08-04T09:26:48.610Z,5.00
2022-08-04T09:29:27.795Z,5.00
2022-08-04T09:32:33.010Z,5.00
2022-08-04T09:35:19.506Z,5.00
2022-08-04T09:38:11.863Z,5.00
2022-08-04T09:41:19.800Z,5.00
2022-08-04T09:44:49.207Z,5.00
2022-08-04T09:47:20.599Z,5.00
2022-08-04T09:49:58.354Z,5.00
2022-08-04T09:53:00.427Z,5.00
2022-08-04T09:55:54.804Z,5.00
2022-08-04T09:58:49.531Z,5.00
2022-08-04T10:01:24.266Z,5.00
2022-08-04T10:03:55.581Z,5.00
2022-08-04T10:06:45.914Z,5.00
2022-08-04T10:09:37.484Z,5.00
2022-08-04T10:12:28.905Z,5.00
2022-08-04T10:15:19.602Z,5.00
2022-08-04T10:18:08.428Z,5.00
2022-08-04T10:21:00.080Z,5.00
2022-08-04T10:24:12.220Z,5.00
2022-08-04T10:27:00.119Z,5.00
2022-08-04T10:30:03.917Z,5.00
2022-08-04T10:32:45.401Z,5.00
2022-08-04T10:35:20.127Z,5.00
2022-08-04T10:38:02.496Z,5.00
2022-08-04T10:40:45.385Z,5.00
2022-08-04T10:43:54.186Z,5.00
2022-08-04T10:46:27.017Z,5.00
2022-08-04T10:49:04.146Z,5.00
2022-08-04T10:51:58.005Z,5.00
2022-08-04T10:54:54.103Z,5.00
2022-08-04T10:57:36.158Z,5.00
2022-08-04T11:00:16.548Z,5.00
2022-08-04T11:02:55.266Z,5.00
2022-08-04T11:05:43.957Z,5.00
2022-08-04T11:08:21.689Z,5.00
2022-08-04T11:10:57.199Z,5.00
2022-08-04T11:13:30.010Z,5.00
2022-08-04T11:16:02.592Z,5.00
2022-08-04T11:18:57.105Z,5.00
2022-08-04T11:21:32.497Z,5.00
2022-08-04T11:24:19.428Z,5.00
2022-08-04T11:27:12.961Z,5.00
2022-08-04T11:29:54.847Z,5.00
2022-08-04T11:32:45.187Z,5.00
2022-08-04T11:35:43.225Z,5.00
2022-08-04T11:38:33.349Z,5.00
2022-08-04T11:41:07.968Z,5.00
2022-08-04T11:44:02.734Z,5.00
2022-08-04T11:46:39.436Z,5.00
2022-08-04T11:49:08.925Z,5.00
2022-08-04T11:51:37.155Z,5.00
2022-08-04T11:54:04.743Z,5.00
2022-08-04T11:56:36.908Z,5.00
2022-08-04T11:59:08.326Z,5.00
2022-08-04T12:01:47.745Z,5.00
2022-08-04T12:04:22.282Z,5.00
2022-08-04T12:07:40.998Z,5.00
2022-08-04T12:10:37.837Z,5.00
2022-08-04T12:13:21.355Z,5.00
2022-08-04T12:16:24.509Z,5.00
2022-08-04T12:19:13.030Z,5.00
2022-08-04T12:21:53.300Z,5.00
2022-08-04T12:24:31.113Z,5.00
2022-08-04T12:27:05.008Z,5.00
2022-08-04T12:29:34.611Z,5.00
2022-08-04T12:32:11.419Z,5.00
2022-08-04T12:34:47.253Z,5.00
2022-08-04T12:37:34.685Z,5.00
2022-08-04T12:40:28.245Z,5.00
2022-08-04T12:43:02.085Z,5.00
2022-08-04T12:45:30.639Z,5.00
2022-08-04T12:48:00.761Z,5.00
2022-08-04T12:50:28.696Z,5.00
2022-08-04T12:53:02.591Z,5.00
2022-08-04T12:55:33.777Z,5.00
2022-08-04T12:58:02.879Z,5.00
2022-08-04T13:00:40.589Z,5.00
2022-08-04T13:03:16.889Z,5.00
2022-08-04T13:05:45.747Z,5.00
2022-08-04T13:08:13.899Z,5.00
2022-08-04T13:10:44.878Z,5.00
2022-08-04T13:13:21.175Z,5.00
2022-08-04T13:16:02.489Z,5.00
2022-08-04T13:18:33.387Z,5.00
2022-08-04T13:21:21.110Z,5.00
2022-08-04T13:24:10.024Z,5.00
2022-08-04T13:26:54.764Z,5.00
2022-08-04T13:29:59.371Z,5.00
2022-08-04T13:32:18.380Z,5.00
2022-08-04T13:34:49.084Z,5.00
2022-08-04T13:37:22.261Z,5.00
2022-08-04T13:39:55.932Z,5.00
2022-08-04T13:42:26.035Z,5.00
2022-08-04T13:45:00.989Z,5.00
2022-08-04T13:47:34.241Z,5.00
2022-08-04T13:50:20.867Z,5.00
2022-08-04T13:52:51.406Z,5.00
2022-08-04T13:55:38.313Z,5.00
2022-08-04T13:58:14.427Z,5.00
2022-08-04T14:00:47.963Z,5.00
2022-08-04T14:03:32.389Z,5.00
2022-08-04T14:06:18.504Z,5.00
2022-08-04T14:08:56.504Z,5.00
2022-08-04T14:12:06.720Z,5.00
2022-08-04T14:14:31.635Z,5.00
2022-08-04T14:17:19.971Z,5.00
2022-08-04T14:19:47.909Z,5.00
2022-08-04T14:22:26.793Z,5.00
2022-08-04T14:25:30.311Z,5.00
2022-08-04T14:28:02.905Z,5.00
2022-08-04T14:30:36.232Z,5.00
2022-08-04T14:34:02.538Z,5.00
2022-08-04T14:36:04.429Z,5.00
2022-08-04T14:38:58.548Z,5.00
2022-08-04T14:41:31.668Z,5.00
2022-08-04T14:44:02.252Z,5.00
2022-08-04T14:46:36.508Z,5.00
2022-08-04T14:49:12.432Z,5.00
2022-08-04T14:51:51.449Z,5.00
2022-08-04T14:54:27.398Z,5.00
2022-08-04T14:57:01.349Z,5.00
2022-08-04T15:00:01.712Z,5.00
2022-08-04T15:02:30.764Z,5.00
2022-08-04T15:04:58.844Z,5.00
2022-08-04T15:07:26.731Z,5.00
2022-08-04T15:09:54.346Z,5.00
2022-08-04T15:12:22.365Z,5.00
2022-08-04T15:14:49.599Z,5.00
2022-08-04T15:17:30.255Z,5.00
2022-08-04T15:19:58.453Z,5.00
2022-08-04T15:22:25.548Z,5.00
2022-08-04T15:24:54.796Z,5.00
2022-08-04T15:27:26.746Z,5.00
2022-08-04T15:30:04.065Z,5.00
2022-08-04T15:32:33.824Z,5.00
2022-08-04T15:35:08.962Z,5.00
2022-08-04T15:37:57.658Z,5.00
2022-08-04T15:40:39.716Z,5.00
2022-08-04T15:43:16.002Z,5.00
2022-08-04T15:46:41.050Z,5.00
2022-08-04T15:48:38.742Z,5.00
2022-08-04T15:51:14.367Z,5.00
2022-08-04T15:54:02.794Z,5.00
2022-08-04T15:56:29.755Z,5.00
2022-08-04T15:58:57.530Z,5.00
2022-08-04T16:01:25.429Z,5.00
2022-08-04T16:03:58.277Z,5.00
2022-08-04T16:06:29.382Z,5.00
2022-08-04T16:09:01.964Z,5.00
2022-08-04T16:11:33.363Z,5.00
2022-08-04T16:14:00.347Z,5.00
2022-08-04T16:16:37.437Z,5.00
2022-08-04T16:19:06.582Z,5.00
2022-08-04T16:21:46.809Z,5.00
2022-08-04T16:24:16.366Z,5.00
2022-08-04T16:26:54.557Z,5.00
2022-08-04T16:29:23.153Z,5.00
2022-08-04T16:32:05.560Z,5.00
2022-08-04T16:34:53.807Z,5.00
2022-08-04T16:37:20.572Z,5.00
2022-08-04T16:39:51.294Z,5.00
2022-08-04T16:42:30.700Z,5.00
2022-08-04T16:45:11.502Z,5.00
2022-08-04T16:47:47.428Z,5.00
2022-08-04T16:50:24.739Z,5.00
2022-08-04T16:52:55.231Z,5.00
2022-08-04T16:55:27.654Z,5.00
2022-08-04T16:58:01.422Z,5.00
2022-08-04T17:00:36.263Z,5.00
2022-08-04T17:03:07.853Z,5.00
2022-08-04T17:05:40.295Z,5.00
2022-08-04T17:10:55.967Z,5.00
2022-08-04T17:14:02.118Z,5.00
2022-08-04T17:16:21.172Z,5.00
2022-08-04T17:18:53.570Z,5.00
2022-08-04T17:21:27.745Z,5.00
2022-08-04T17:24:15.276Z,5.00
2022-08-04T17:26:53.835Z,5.00
2022-08-04T17:29:21.753Z,5.00
2022-08-04T17:31:48.742Z,5.00
2022-08-04T17:34:21.362Z,5.00
2022-08-04T17:36:48.686Z,5.00
2022-08-04T17:39:23.259Z,5.00
2022-08-04T17:41:56.645Z,5.00
2022-08-04T17:44:36.849Z,5.00
2022-08-04T17:47:19.566Z,5.00
2022-08-04T17:49:53.227Z,5.00
2022-08-04T17:52:41.499Z,5.00
2022-08-04T17:55:16.247Z,5.00
2022-08-04T17:57:52.243Z,5.00
2022-08-04T18:00:22.403Z,5.00
2022-08-04T18:02:54.587Z,5.00
2022-08-04T18:08:37.880Z,5.00
2022-08-04T18:11:04.946Z,5.00
2022-08-04T18:13:42.734Z,5.00
2022-08-04T18:16:21.912Z,5.00
2022-08-04T18:19:25.430Z,5.00
2022-08-04T18:21:59.410Z,5.00
2022-08-04T18:24:35.095Z,5.00
2022-08-04T18:27:06.291Z,5.00
2022-08-04T18:29:34.457Z,5.00
2022-08-04T18:32:07.115Z,5.00
2022-08-04T18:34:54.629Z,5.00
2022-08-04T18:38:11.452Z,5.00
2022-08-04T18:43:00.484Z,5.00
2022-08-04T18:45:33.938Z,5.00
2022-08-04T18:48:01.893Z,5.00
2022-08-04T18:51:01.063Z,5.00
2022-08-04T18:53:17.892Z,5.00
2022-08-04T18:55:56.981Z,5.00
2022-08-04T19:01:14.029Z,5.00
2022-08-04T19:03:44.084Z,5.30
2022-08-04T19:06:26.015Z,7.10
2022-08-04T19:08:54.594Z,9.30
2022-08-04T19:11:38.248Z,9.80
2022-08-04T19:14:17.836Z,10.20
2022-08-04T19:16:49.613Z,11.40
2022-08-04T19:19:18.051Z,11.80
2022-08-04T19:22:01.379Z,10.10
2022-08-04T19:24:41.024Z,9.60
2022-08-04T19:27:09.918Z,8.60
2022-08-04T19:29:43.095Z,8.00
2022-08-04T19:32:15.991Z,8.30
2022-08-04T19:34:47.444Z,8.00
2022-08-04T19:37:56.805Z,7.90
2022-08-04T19:40:32.590Z,8.50
2022-08-04T19:43:14.408Z,8.90
2022-08-04T19:45:45.043Z,9.50
2022-08-04T19:48:18.663Z,9.40
2022-08-04T19:50:47.177Z,9.70
2022-08-04T19:53:20.237Z,8.50
2022-08-04T19:56:08.909Z,8.10
2022-08-04T19:58:35.745Z,8.80
2022-08-04T20:01:02.580Z,8.90
2022-08-04T20:04:10.595Z,9.50
2022-08-04T20:06:16.166Z,10.00
2022-08-04T20:08:48.264Z,9.80
2022-08-04T20:11:16.417Z,11.00
2022-08-04T20:13:45.176Z,10.30
2022-08-04T20:16:29.664Z,10.10
2022-08-04T20:19:03.752Z,10.70
2022-08-04T20:21:36.520Z,12.10
2022-08-04T20:24:40.373Z,12.50
2022-08-04T20:27:15.433Z,11.60
2022-08-04T20:29:55.651Z,12.20
2022-08-04T20:32:25.892Z,12.50
2022-08-04T20:34:55.230Z,12.40
2022-08-04T20:37:23.997Z,11.40
2022-08-04T20:39:59.428Z,12.70
2022-08-04T20:42:33.624Z,13.00
2022-08-04T20:45:16.496Z,13.30
2022-08-04T20:47:53.232Z,14.40
2022-08-04T20:50:29.547Z,15.00
2022-08-04T20:52:58.600Z,14.40
2022-08-04T20:55:26.141Z,15.40
2022-08-04T20:58:02.566Z,15.60
2022-08-04T21:00:30.989Z,14.20
2022-08-04T21:02:59.342Z,13.20
2022-08-04T21:05:26.597Z,13.00
2022-08-04T21:07:56.707Z,12.70
2022-08-04T21:10:27.887Z,12.30
2022-08-04T21:12:55.179Z,11.70
2022-08-04T21:15:25.613Z,12.40
2022-08-04T21:17:58.387Z,13.00
2022-08-04T21:20:31.457Z,13.90
2022-08-04T21:22:59.670Z,14.60
2022-08-04T21:25:28.857Z,14.10
2022-08-04T21:27:58.824Z,14.40
2022-08-04T21:30:31.443Z,14.60
2022-08-04T21:33:04.420Z,14.40
2022-08-04T21:35:38.289Z,14.80
2022-08-04T21:38:17.138Z,14.70
2022-08-04T21:41:01.561Z,15.00
2022-08-04T21:43:42.295Z,15.30
2022-08-04T21:46:10.402Z,15.10
2022-08-04T21:48:39.216Z,15.50
2022-08-04T21:51:57.753Z,15.50
2022-08-04T21:54:10.119Z,15.30
2022-08-04T21:56:51.037Z,15.90
2022-08-04T21:59:23.520Z,16.30
2022-08-04T22:01:59.985Z,16.50
2022-08-04T22:04:28.047Z,17.20
2022-08-04T22:06:54.875Z,16.70
2022-08-04T22:09:22.372Z,17.20
2022-08-04T22:11:51.719Z,17.50
2022-08-04T22:14:29.224Z,18.70
2022-08-04T22:17:02.242Z,18.60
2022-08-04T22:19:39.804Z,18.40
2022-08-04T22:22:25.016Z,19.50
2022-08-04T22:24:54.802Z,20.50
2022-08-04T22:27:40.318Z,20.40
2022-08-04T22:30:17.416Z,19.80
2022-08-04T22:32:48.543Z,20.60
2022-08-04T22:35:36.396Z,20.40
2022-08-04T22:38:24.308Z,20.70
2022-08-04T22:41:02.169Z,20.40
2022-08-04T22:43:32.480Z,20.20
2022-08-04T22:46:06.424Z,20.00
2022-08-04T22:48:38.334Z,20.40
2022-08-04T22:51:07.287Z,20.20
2022-08-04T22:53:35.527Z,20.10
2022-08-04T22:56:09.802Z,20.70
2022-08-04T22:58:51.288Z,20.70
2022-08-04T23:01:19.246Z,20.70
2022-08-04T23:03:55.403Z,21.10
2022-08-04T23:06:25.423Z,20.50
2022-08-04T23:08:53.150Z,19.60
2022-08-04T23:11:20.504Z,19.40
2022-08-04T23:13:49.069Z,19.20
2022-08-04T23:16:17.036Z,20.00
2022-08-04T23:18:49.010Z,20.60
2022-08-04T23:21:17.246Z,20.30
2022-08-04T23:24:00.799Z,20.60
2022-08-04T23:26:29.943Z,18.10
2022-08-04T23:28:56.873Z,17.90
2022-08-04T23:31:24.684Z,17.60
2022-08-04T23:33:52.405Z,17.80
2022-08-04T23:36:29.598Z,17.40
2022-08-04T23:39:04.066Z,18.20
2022-08-04T23:41:51.404Z,19.70
2022-08-04T23:44:25.380Z,20.00
2022-08-04T23:47:04.492Z,20.60
2022-08-04T23:49:43.406Z,20.80
2022-08-04T23:52:27.673Z,20.00
2022-08-04T23:55:00.265Z,20.40
2022-08-04T23:58:05.332Z,19.60
